sensor_id;sensor_type;location;lat;lon;timestamp;temperature;humidity
7360;DHT22;3720;48.274;7.796;2023-09-12T00:01:58;20.70;99.90
7360;DHT22;3720;48.274;7.796;2023-09-12T00:04:30;20.70;99.90
7360;DHT22;3720;48.274;7.796;2023-09-12T00:07:02;20.70;99.90
7360;DHT22;3720;48.274;7.796;2023-09-12T00:09:35;20.80;99.90
7360;DHT22;3720;48.274;7.796;2023-09-12T00:12:07;20.80;99.90
7360;DHT22;3720;48.274;7.796;2023-09-12T00:14:39;20.80;99.90
7360;DHT22;3720;48.274;7.796;2023-09-12T00:17:11;21.00;99.90
7360;DHT22;3720;48.274;7.796;2023-09-12T00:19:43;21.10;99.90
7360;DHT22;3720;48.274;7.796;2023-09-12T00:22:15;21.10;99.90
7360;DHT22;3720;48.274;7.796;2023-09-12T00:24:48;21.00;99.90
7360;DHT22;3720;48.274;7.796;2023-09-12T00:27:20;21.00;99.90
7360;DHT22;3720;48.274;7.796;2023-09-12T00:29:51;20.90;99.90
7360;DHT22;3720;48.274;7.796;2023-09-12T00:32:23;20.80;99.90
7360;DHT22;3720;48.274;7.796;2023-09-12T00:34:55;20.70;99.90
7360;DHT22;3720;48.274;7.796;2023-09-12T00:37:27;20.70;99.90
7360;DHT22;3720;48.274;7.796;2023-09-12T00:40:00;20.60;99.90
7360;DHT22;3720;48.274;7.796;2023-09-12T00:42:32;20.50;99.90
7360;DHT22;3720;48.274;7.796;2023-09-12T00:45:04;20.50;99.90
7360;DHT22;3720;48.274;7.796;2023-09-12T00:47:36;20.50;99.90
7360;DHT22;3720;48.274;7.796;2023-09-12T00:50:09;20.50;99.90
7360;DHT22;3720;48.274;7.796;2023-09-12T00:52:42;20.50;99.90
7360;DHT22;3720;48.274;7.796;2023-09-12T00:55:16;20.40;99.90
7360;DHT22;3720;48.274;7.796;2023-09-12T00:57:49;20.50;99.90
7360;DHT22;3720;48.274;7.796;2023-09-12T01:00:22;20.50;99.90
7360;DHT22;3720;48.274;7.796;2023-09-12T01:02:54;20.60;99.90
7360;DHT22;3720;48.274;7.796;2023-09-12T01:05:27;20.60;99.90
7360;DHT22;3720;48.274;7.796;2023-09-12T01:08:00;20.60;99.90
7360;DHT22;3720;48.274;7.796;2023-09-12T01:10:34;20.70;99.90
7360;DHT22;3720;48.274;7.796;2023-09-12T01:13:06;20.70;99.90
7360;DHT22;3720;48.274;7.796;2023-09-12T01:15:38;20.60;99.90
7360;DHT22;3720;48.274;7.796;2023-09-12T01:18:10;20.60;99.90
7360;DHT22;3720;48.274;7.796;2023-09-12T01:20:59;20.60;99.90
7360;DHT22;3720;48.274;7.796;2023-09-12T01:23:44;20.60;99.90
7360;DHT22;3720;48.274;7.796;2023-09-12T01:26:37;20.50;99.90
7360;DHT22;3720;48.274;7.796;2023-09-12T01:29:13;20.50;99.90
7360;DHT22;3720;48.274;7.796;2023-09-12T01:31:47;20.50;99.90
7360;DHT22;3720;48.274;7.796;2023-09-12T01:34:20;20.50;99.90
7360;DHT22;3720;48.274;7.796;2023-09-12T01:36:52;20.50;99.90
7360;DHT22;3720;48.274;7.796;2023-09-12T01:39:24;20.40;99.90
7360;DHT22;3720;48.274;7.796;2023-09-12T01:41:57;20.30;99.90
7360;DHT22;3720;48.274;7.796;2023-09-12T01:44:33;20.20;99.90
7360;DHT22;3720;48.274;7.796;2023-09-12T01:47:06;20.10;99.90
7360;DHT22;3720;48.274;7.796;2023-09-12T01:49:41;20.10;99.90
7360;DHT22;3720;48.274;7.796;2023-09-12T01:52:14;20.00;99.90
7360;DHT22;3720;48.274;7.796;2023-09-12T01:54:47;20.10;99.90
7360;DHT22;3720;48.274;7.796;2023-09-12T01:57:20;20.00;99.90
7360;DHT22;3720;48.274;7.796;2023-09-12T01:59:54;20.00;99.90
7360;DHT22;3720;48.274;7.796;2023-09-12T02:02:26;20.00;99.90
7360;DHT22;3720;48.274;7.796;2023-09-12T02:05:06;20.00;99.90
7360;DHT22;3720;48.274;7.796;2023-09-12T02:07:41;20.00;99.90
7360;DHT22;3720;48.274;7.796;2023-09-12T02:10:13;19.90;99.90
7360;DHT22;3720;48.274;7.796;2023-09-12T02:12:45;19.80;99.90
7360;DHT22;3720;48.274;7.796;2023-09-12T02:15:19;19.90;99.90
7360;DHT22;3720;48.274;7.796;2023-09-12T02:17:51;19.90;99.90
7360;DHT22;3720;48.274;7.796;2023-09-12T02:20:23;20.00;99.90
7360;DHT22;3720;48.274;7.796;2023-09-12T02:22:55;20.10;99.90
7360;DHT22;3720;48.274;7.796;2023-09-12T02:25:27;20.20;99.90
7360;DHT22;3720;48.274;7.796;2023-09-12T02:27:59;20.20;99.90
7360;DHT22;3720;48.274;7.796;2023-09-12T02:30:32;20.20;99.90
7360;DHT22;3720;48.274;7.796;2023-09-12T02:33:04;20.00;99.90
7360;DHT22;3720;48.274;7.796;2023-09-12T02:35:36;19.90;99.90
7360;DHT22;3720;48.274;7.796;2023-09-12T02:38:08;19.90;99.90
7360;DHT22;3720;48.274;7.796;2023-09-12T02:40:39;19.90;99.90
7360;DHT22;3720;48.274;7.796;2023-09-12T02:43:11;20.00;99.90
7360;DHT22;3720;48.274;7.796;2023-09-12T02:45:44;20.00;99.90
7360;DHT22;3720;48.274;7.796;2023-09-12T02:48:16;20.00;99.90
7360;DHT22;3720;48.274;7.796;2023-09-12T02:50:48;20.20;99.90
7360;DHT22;3720;48.274;7.796;2023-09-12T02:53:20;20.10;99.90
7360;DHT22;3720;48.274;7.796;2023-09-12T02:55:52;20.10;99.90
7360;DHT22;3720;48.274;7.796;2023-09-12T02:58:24;20.00;99.90
7360;DHT22;3720;48.274;7.796;2023-09-12T03:00:58;20.20;99.90
7360;DHT22;3720;48.274;7.796;2023-09-12T03:03:30;20.20;99.90
7360;DHT22;3720;48.274;7.796;2023-09-12T03:06:02;20.20;99.90
7360;DHT22;3720;48.274;7.796;2023-09-12T03:08:34;20.30;99.90
7360;DHT22;3720;48.274;7.796;2023-09-12T03:11:06;20.40;99.90
7360;DHT22;3720;48.274;7.796;2023-09-12T03:13:40;20.50;99.90
7360;DHT22;3720;48.274;7.796;2023-09-12T03:16:14;20.50;99.90
7360;DHT22;3720;48.274;7.796;2023-09-12T03:18:45;20.50;99.90
7360;DHT22;3720;48.274;7.796;2023-09-12T03:21:17;20.60;99.90
7360;DHT22;3720;48.274;7.796;2023-09-12T03:23:49;20.60;99.90
7360;DHT22;3720;48.274;7.796;2023-09-12T03:26:21;20.70;99.90
7360;DHT22;3720;48.274;7.796;2023-09-12T03:28:53;20.60;99.90
7360;DHT22;3720;48.274;7.796;2023-09-12T03:31:26;20.60;99.90
7360;DHT22;3720;48.274;7.796;2023-09-12T03:33:59;20.50;99.90
7360;DHT22;3720;48.274;7.796;2023-09-12T03:36:31;20.60;99.90
7360;DHT22;3720;48.274;7.796;2023-09-12T03:39:04;20.50;99.90
7360;DHT22;3720;48.274;7.796;2023-09-12T03:41:39;20.50;99.90
7360;DHT22;3720;48.274;7.796;2023-09-12T03:44:11;20.50;99.90
7360;DHT22;3720;48.274;7.796;2023-09-12T03:46:44;20.50;99.90
7360;DHT22;3720;48.274;7.796;2023-09-12T03:49:16;20.50;99.90
7360;DHT22;3720;48.274;7.796;2023-09-12T03:51:47;20.50;99.90
7360;DHT22;3720;48.274;7.796;2023-09-12T03:54:19;20.40;99.90
7360;DHT22;3720;48.274;7.796;2023-09-12T03:56:51;20.30;99.90
7360;DHT22;3720;48.274;7.796;2023-09-12T03:59:23;20.30;99.90
7360;DHT22;3720;48.274;7.796;2023-09-12T04:01:56;20.30;99.90
7360;DHT22;3720;48.274;7.796;2023-09-12T04:04:28;20.30;99.90
7360;DHT22;3720;48.274;7.796;2023-09-12T04:07:00;20.30;99.90
7360;DHT22;3720;48.274;7.796;2023-09-12T04:09:32;20.30;99.90
7360;DHT22;3720;48.274;7.796;2023-09-12T04:12:04;20.20;99.90
7360;DHT22;3720;48.274;7.796;2023-09-12T04:14:37;20.20;99.90
7360;DHT22;3720;48.274;7.796;2023-09-12T04:17:10;20.20;99.90
7360;DHT22;3720;48.274;7.796;2023-09-12T04:19:42;20.20;99.90
7360;DHT22;3720;48.274;7.796;2023-09-12T04:22:14;20.20;99.90
7360;DHT22;3720;48.274;7.796;2023-09-12T04:24:46;20.10;99.90
7360;DHT22;3720;48.274;7.796;2023-09-12T04:27:18;20.20;99.90
7360;DHT22;3720;48.274;7.796;2023-09-12T04:29:50;20.30;99.90
7360;DHT22;3720;48.274;7.796;2023-09-12T04:32:23;20.30;99.90
7360;DHT22;3720;48.274;7.796;2023-09-12T04:34:55;20.30;99.90
7360;DHT22;3720;48.274;7.796;2023-09-12T04:37:26;20.20;99.90
7360;DHT22;3720;48.274;7.796;2023-09-12T04:39:58;20.30;99.90
7360;DHT22;3720;48.274;7.796;2023-09-12T04:42:30;20.30;99.90
7360;DHT22;3720;48.274;7.796;2023-09-12T04:45:02;20.40;99.90
7360;DHT22;3720;48.274;7.796;2023-09-12T04:47:36;20.80;99.90
7360;DHT22;3720;48.274;7.796;2023-09-12T04:50:08;20.50;99.90
7360;DHT22;3720;48.274;7.796;2023-09-12T04:52:42;20.50;99.90
7360;DHT22;3720;48.274;7.796;2023-09-12T04:55:14;20.40;99.90
7360;DHT22;3720;48.274;7.796;2023-09-12T04:57:45;20.30;99.90
7360;DHT22;3720;48.274;7.796;2023-09-12T05:00:17;20.20;99.90
7360;DHT22;3720;48.274;7.796;2023-09-12T05:02:50;20.20;99.90
7360;DHT22;3720;48.274;7.796;2023-09-12T05:05:22;20.20;99.90
7360;DHT22;3720;48.274;7.796;2023-09-12T05:07:54;20.20;99.90
7360;DHT22;3720;48.274;7.796;2023-09-12T05:10:26;20.20;99.90
7360;DHT22;3720;48.274;7.796;2023-09-12T05:12:58;20.30;99.90
7360;DHT22;3720;48.274;7.796;2023-09-12T05:15:30;20.40;99.90
7360;DHT22;3720;48.274;7.796;2023-09-12T05:18:03;20.30;99.90
7360;DHT22;3720;48.274;7.796;2023-09-12T05:20:35;20.20;99.90
7360;DHT22;3720;48.274;7.796;2023-09-12T05:23:07;20.20;99.90
7360;DHT22;3720;48.274;7.796;2023-09-12T05:25:39;20.00;99.90
7360;DHT22;3720;48.274;7.796;2023-09-12T05:28:11;20.00;99.90
7360;DHT22;3720;48.274;7.796;2023-09-12T05:30:46;20.00;99.90
7360;DHT22;3720;48.274;7.796;2023-09-12T05:33:19;20.10;99.90
7360;DHT22;3720;48.274;7.796;2023-09-12T05:35:51;20.20;99.90
7360;DHT22;3720;48.274;7.796;2023-09-12T05:38:23;20.30;99.90
7360;DHT22;3720;48.274;7.796;2023-09-12T05:40:56;20.30;99.90
7360;DHT22;3720;48.274;7.796;2023-09-12T05:43:28;20.20;99.90
7360;DHT22;3720;48.274;7.796;2023-09-12T05:45:59;20.00;99.90
7360;DHT22;3720;48.274;7.796;2023-09-12T05:48:33;20.00;99.90
7360;DHT22;3720;48.274;7.796;2023-09-12T05:51:04;19.90;99.90
7360;DHT22;3720;48.274;7.796;2023-09-12T05:53:36;19.90;99.90
7360;DHT22;3720;48.274;7.796;2023-09-12T05:56:08;20.10;99.90
7360;DHT22;3720;48.274;7.796;2023-09-12T05:58:40;20.20;99.90
7360;DHT22;3720;48.274;7.796;2023-09-12T06:01:13;20.30;99.90
7360;DHT22;3720;48.274;7.796;2023-09-12T06:03:46;20.50;99.90
7360;DHT22;3720;48.274;7.796;2023-09-12T06:06:18;20.60;99.90
7360;DHT22;3720;48.274;7.796;2023-09-12T06:08:50;20.60;99.90
7360;DHT22;3720;48.274;7.796;2023-09-12T06:11:23;20.60;99.90
7360;DHT22;3720;48.274;7.796;2023-09-12T06:13:54;20.60;99.90
7360;DHT22;3720;48.274;7.796;2023-09-12T06:16:26;20.70;99.90
7360;DHT22;3720;48.274;7.796;2023-09-12T06:18:59;20.80;99.90
7360;DHT22;3720;48.274;7.796;2023-09-12T06:21:31;20.80;99.90
7360;DHT22;3720;48.274;7.796;2023-09-12T06:24:11;20.80;99.90
7360;DHT22;3720;48.274;7.796;2023-09-12T06:26:43;20.80;99.90
7360;DHT22;3720;48.274;7.796;2023-09-12T06:29:15;20.90;99.90
7360;DHT22;3720;48.274;7.796;2023-09-12T06:31:47;20.90;99.90
7360;DHT22;3720;48.274;7.796;2023-09-12T06:34:20;20.90;99.90
7360;DHT22;3720;48.274;7.796;2023-09-12T06:36:52;20.90;99.90
7360;DHT22;3720;48.274;7.796;2023-09-12T06:39:24;21.00;99.90
7360;DHT22;3720;48.274;7.796;2023-09-12T06:41:57;21.20;99.90
7360;DHT22;3720;48.274;7.796;2023-09-12T06:44:29;21.30;99.90
7360;DHT22;3720;48.274;7.796;2023-09-12T06:47:03;21.40;99.90
7360;DHT22;3720;48.274;7.796;2023-09-12T06:49:36;21.40;99.90
7360;DHT22;3720;48.274;7.796;2023-09-12T06:52:08;21.50;99.90
7360;DHT22;3720;48.274;7.796;2023-09-12T06:54:41;21.50;99.90
7360;DHT22;3720;48.274;7.796;2023-09-12T06:57:13;21.60;99.90
7360;DHT22;3720;48.274;7.796;2023-09-12T06:59:45;21.70;99.90
7360;DHT22;3720;48.274;7.796;2023-09-12T07:02:18;21.80;99.90
7360;DHT22;3720;48.274;7.796;2023-09-12T07:04:52;21.80;99.90
7360;DHT22;3720;48.274;7.796;2023-09-12T07:07:23;21.80;99.90
7360;DHT22;3720;48.274;7.796;2023-09-12T07:09:55;21.90;99.90
7360;DHT22;3720;48.274;7.796;2023-09-12T07:12:27;22.00;99.90
7360;DHT22;3720;48.274;7.796;2023-09-12T07:15:00;22.00;99.90
7360;DHT22;3720;48.274;7.796;2023-09-12T07:17:31;22.10;99.90
7360;DHT22;3720;48.274;7.796;2023-09-12T07:20:06;22.20;99.90
7360;DHT22;3720;48.274;7.796;2023-09-12T07:22:41;22.20;99.90
7360;DHT22;3720;48.274;7.796;2023-09-12T07:25:14;22.30;99.90
7360;DHT22;3720;48.274;7.796;2023-09-12T07:27:46;22.50;99.90
7360;DHT22;3720;48.274;7.796;2023-09-12T07:30:18;22.60;99.90
7360;DHT22;3720;48.274;7.796;2023-09-12T07:32:50;22.80;99.90
7360;DHT22;3720;48.274;7.796;2023-09-12T07:35:24;23.00;99.90
7360;DHT22;3720;48.274;7.796;2023-09-12T07:37:55;23.20;99.90
7360;DHT22;3720;48.274;7.796;2023-09-12T07:40:27;23.30;99.90
7360;DHT22;3720;48.274;7.796;2023-09-12T07:42:59;23.50;99.90
7360;DHT22;3720;48.274;7.796;2023-09-12T07:45:31;23.50;99.90
7360;DHT22;3720;48.274;7.796;2023-09-12T07:48:08;23.60;99.90
7360;DHT22;3720;48.274;7.796;2023-09-12T07:50:42;23.60;99.90
7360;DHT22;3720;48.274;7.796;2023-09-12T07:53:13;23.60;99.90
7360;DHT22;3720;48.274;7.796;2023-09-12T07:55:45;23.60;99.90
7360;DHT22;3720;48.274;7.796;2023-09-12T07:58:17;23.60;99.90
7360;DHT22;3720;48.274;7.796;2023-09-12T08:00:49;23.60;99.90
7360;DHT22;3720;48.274;7.796;2023-09-12T08:03:21;23.60;99.90
7360;DHT22;3720;48.274;7.796;2023-09-12T08:05:57;23.60;99.90
7360;DHT22;3720;48.274;7.796;2023-09-12T08:08:29;23.60;99.90
7360;DHT22;3720;48.274;7.796;2023-09-12T08:11:01;23.60;99.90
7360;DHT22;3720;48.274;7.796;2023-09-12T08:13:33;23.60;99.90
7360;DHT22;3720;48.274;7.796;2023-09-12T08:16:05;23.50;99.90
7360;DHT22;3720;48.274;7.796;2023-09-12T08:18:37;23.60;99.90
7360;DHT22;3720;48.274;7.796;2023-09-12T08:21:10;23.60;99.90
7360;DHT22;3720;48.274;7.796;2023-09-12T08:23:42;23.50;99.90
7360;DHT22;3720;48.274;7.796;2023-09-12T08:26:14;23.50;99.90
7360;DHT22;3720;48.274;7.796;2023-09-12T08:28:46;23.70;99.90
7360;DHT22;3720;48.274;7.796;2023-09-12T08:31:17;24.00;99.90
7360;DHT22;3720;48.274;7.796;2023-09-12T08:33:49;24.10;99.90
7360;DHT22;3720;48.274;7.796;2023-09-12T08:36:22;24.30;99.90
7360;DHT22;3720;48.274;7.796;2023-09-12T08:38:54;24.60;99.90
7360;DHT22;3720;48.274;7.796;2023-09-12T08:41:26;24.80;99.90
7360;DHT22;3720;48.274;7.796;2023-09-12T08:43:58;24.90;99.90
7360;DHT22;3720;48.274;7.796;2023-09-12T08:46:30;25.10;99.90
7360;DHT22;3720;48.274;7.796;2023-09-12T08:49:02;25.30;99.90
7360;DHT22;3720;48.274;7.796;2023-09-12T08:51:37;25.50;99.90
7360;DHT22;3720;48.274;7.796;2023-09-12T08:54:09;25.80;99.90
7360;DHT22;3720;48.274;7.796;2023-09-12T08:56:43;26.00;99.90
7360;DHT22;3720;48.274;7.796;2023-09-12T08:59:16;26.20;99.90
7360;DHT22;3720;48.274;7.796;2023-09-12T09:01:48;26.50;99.90
7360;DHT22;3720;48.274;7.796;2023-09-12T09:04:23;26.70;99.90
7360;DHT22;3720;48.274;7.796;2023-09-12T09:06:58;26.80;99.90
7360;DHT22;3720;48.274;7.796;2023-09-12T09:09:31;26.90;99.90
7360;DHT22;3720;48.274;7.796;2023-09-12T09:12:07;27.00;99.90
7360;DHT22;3720;48.274;7.796;2023-09-12T09:14:39;27.10;99.90
7360;DHT22;3720;48.274;7.796;2023-09-12T09:17:11;27.40;99.90
7360;DHT22;3720;48.274;7.796;2023-09-12T09:19:44;27.60;99.90
7360;DHT22;3720;48.274;7.796;2023-09-12T09:22:18;27.80;99.90
7360;DHT22;3720;48.274;7.796;2023-09-12T09:24:50;28.00;99.90
7360;DHT22;3720;48.274;7.796;2023-09-12T09:27:35;28.10;99.90
7360;DHT22;3720;48.274;7.796;2023-09-12T09:30:07;28.30;99.90
7360;DHT22;3720;48.274;7.796;2023-09-12T09:32:39;28.50;99.90
7360;DHT22;3720;48.274;7.796;2023-09-12T09:35:11;28.60;99.90
7360;DHT22;3720;48.274;7.796;2023-09-12T09:37:44;28.70;99.90
7360;DHT22;3720;48.274;7.796;2023-09-12T09:40:16;28.90;99.90
7360;DHT22;3720;48.274;7.796;2023-09-12T09:42:53;29.10;99.90
7360;DHT22;3720;48.274;7.796;2023-09-12T09:45:25;29.20;99.90
7360;DHT22;3720;48.274;7.796;2023-09-12T09:47:57;29.40;99.90
7360;DHT22;3720;48.274;7.796;2023-09-12T09:50:30;29.50;99.90
7360;DHT22;3720;48.274;7.796;2023-09-12T09:53:05;29.70;99.90
7360;DHT22;3720;48.274;7.796;2023-09-12T09:55:39;29.90;99.90
7360;DHT22;3720;48.274;7.796;2023-09-12T09:58:15;30.10;99.90
7360;DHT22;3720;48.274;7.796;2023-09-12T10:00:48;30.20;99.90
7360;DHT22;3720;48.274;7.796;2023-09-12T10:03:22;30.30;99.90
7360;DHT22;3720;48.274;7.796;2023-09-12T10:05:57;30.50;99.90
7360;DHT22;3720;48.274;7.796;2023-09-12T10:08:33;30.70;99.90
7360;DHT22;3720;48.274;7.796;2023-09-12T10:11:05;30.90;99.90
7360;DHT22;3720;48.274;7.796;2023-09-12T10:13:41;31.00;99.90
7360;DHT22;3720;48.274;7.796;2023-09-12T10:16:16;31.20;99.90
7360;DHT22;3720;48.274;7.796;2023-09-12T10:18:56;31.50;99.90
7360;DHT22;3720;48.274;7.796;2023-09-12T10:21:30;31.60;99.90
7360;DHT22;3720;48.274;7.796;2023-09-12T10:24:05;31.80;99.90
7360;DHT22;3720;48.274;7.796;2023-09-12T10:26:39;31.80;99.40
7360;DHT22;3720;48.274;7.796;2023-09-12T10:29:14;32.00;99.30
7360;DHT22;3720;48.274;7.796;2023-09-12T10:31:47;32.30;98.50
7360;DHT22;3720;48.274;7.796;2023-09-12T10:34:20;32.50;95.90
7360;DHT22;3720;48.274;7.796;2023-09-12T10:36:52;32.60;96.00
7360;DHT22;3720;48.274;7.796;2023-09-12T10:39:29;32.70;96.30
7360;DHT22;3720;48.274;7.796;2023-09-12T10:42:04;32.80;97.40
7360;DHT22;3720;48.274;7.796;2023-09-12T10:44:36;33.00;96.90
7360;DHT22;3720;48.274;7.796;2023-09-12T10:47:09;33.20;95.40
7360;DHT22;3720;48.274;7.796;2023-09-12T10:49:43;33.60;93.70
7360;DHT22;3720;48.274;7.796;2023-09-12T10:52:24;33.90;92.90
7360;DHT22;3720;48.274;7.796;2023-09-12T10:54:58;34.10;91.20
7360;DHT22;3720;48.274;7.796;2023-09-12T10:57:29;34.00;90.00
7360;DHT22;3720;48.274;7.796;2023-09-12T11:00:12;33.90;87.30
7360;DHT22;3720;48.274;7.796;2023-09-12T11:02:44;33.80;87.20
7360;DHT22;3720;48.274;7.796;2023-09-12T11:05:35;34.00;87.60
7360;DHT22;3720;48.274;7.796;2023-09-12T11:08:07;34.10;82.50
7360;DHT22;3720;48.274;7.796;2023-09-12T11:10:40;34.50;82.60
7360;DHT22;3720;48.274;7.796;2023-09-12T11:13:17;34.50;77.80
7360;DHT22;3720;48.274;7.796;2023-09-12T11:16:11;34.60;74.60
7360;DHT22;3720;48.274;7.796;2023-09-12T11:19:15;34.70;74.20
7360;DHT22;3720;48.274;7.796;2023-09-12T11:21:49;34.70;68.50
7360;DHT22;3720;48.274;7.796;2023-09-12T11:24:21;34.90;73.40
7360;DHT22;3720;48.274;7.796;2023-09-12T11:26:56;35.00;70.40
7360;DHT22;3720;48.274;7.796;2023-09-12T11:29:29;35.30;67.60
7360;DHT22;3720;48.274;7.796;2023-09-12T11:32:01;35.70;67.80
7360;DHT22;3720;48.274;7.796;2023-09-12T11:34:37;35.90;68.80
7360;DHT22;3720;48.274;7.796;2023-09-12T11:37:09;35.80;66.00
7360;DHT22;3720;48.274;7.796;2023-09-12T11:39:41;35.80;66.10
7360;DHT22;3720;48.274;7.796;2023-09-12T11:42:14;36.10;64.10
7360;DHT22;3720;48.274;7.796;2023-09-12T11:44:48;36.10;63.80
7360;DHT22;3720;48.274;7.796;2023-09-12T11:47:20;35.80;66.60
7360;DHT22;3720;48.274;7.796;2023-09-12T11:49:52;35.40;66.80
7360;DHT22;3720;48.274;7.796;2023-09-12T11:52:24;35.20;66.10
7360;DHT22;3720;48.274;7.796;2023-09-12T11:54:55;35.10;65.70
7360;DHT22;3720;48.274;7.796;2023-09-12T11:57:29;35.20;68.70
7360;DHT22;3720;48.274;7.796;2023-09-12T12:00:03;35.20;64.70
7360;DHT22;3720;48.274;7.796;2023-09-12T12:02:39;35.40;65.30
7360;DHT22;3720;48.274;7.796;2023-09-12T12:05:11;35.80;62.60
7360;DHT22;3720;48.274;7.796;2023-09-12T12:07:43;36.10;64.90
7360;DHT22;3720;48.274;7.796;2023-09-12T12:10:17;36.50;62.70
7360;DHT22;3720;48.274;7.796;2023-09-12T12:12:52;36.90;61.50
7360;DHT22;3720;48.274;7.796;2023-09-12T12:15:25;37.20;60.90
7360;DHT22;3720;48.274;7.796;2023-09-12T12:17:58;37.40;59.30
7360;DHT22;3720;48.274;7.796;2023-09-12T12:20:30;37.60;60.30
7360;DHT22;3720;48.274;7.796;2023-09-12T12:23:02;37.70;57.80
7360;DHT22;3720;48.274;7.796;2023-09-12T12:25:35;37.90;57.40
7360;DHT22;3720;48.274;7.796;2023-09-12T12:28:08;38.40;55.40
7360;DHT22;3720;48.274;7.796;2023-09-12T12:30:40;38.70;53.30
7360;DHT22;3720;48.274;7.796;2023-09-12T12:33:12;39.00;54.00
7360;DHT22;3720;48.274;7.796;2023-09-12T12:35:44;39.20;51.80
7360;DHT22;3720;48.274;7.796;2023-09-12T12:38:16;39.30;50.70
7360;DHT22;3720;48.274;7.796;2023-09-12T12:40:48;39.00;50.00
7360;DHT22;3720;48.274;7.796;2023-09-12T12:43:21;38.90;50.90
7360;DHT22;3720;48.274;7.796;2023-09-12T12:45:53;38.90;49.90
7360;DHT22;3720;48.274;7.796;2023-09-12T12:48:32;39.00;48.80
7360;DHT22;3720;48.274;7.796;2023-09-12T12:51:15;39.00;44.60
7360;DHT22;3720;48.274;7.796;2023-09-12T12:53:49;39.10;44.00
7360;DHT22;3720;48.274;7.796;2023-09-12T12:56:22;38.60;42.00
7360;DHT22;3720;48.274;7.796;2023-09-12T12:58:57;37.90;42.20
7360;DHT22;3720;48.274;7.796;2023-09-12T13:01:30;37.10;44.10
7360;DHT22;3720;48.274;7.796;2023-09-12T13:04:04;36.40;44.00
7360;DHT22;3720;48.274;7.796;2023-09-12T13:06:37;36.30;45.10
7360;DHT22;3720;48.274;7.796;2023-09-12T13:09:11;36.80;45.20
7360;DHT22;3720;48.274;7.796;2023-09-12T13:11:43;37.00;43.40
7360;DHT22;3720;48.274;7.796;2023-09-12T13:14:17;37.40;42.70
7360;DHT22;3720;48.274;7.796;2023-09-12T13:16:50;37.80;40.80
7360;DHT22;3720;48.274;7.796;2023-09-12T13:19:21;38.20;40.50
7360;DHT22;3720;48.274;7.796;2023-09-12T13:21:53;38.70;41.50
7360;DHT22;3720;48.274;7.796;2023-09-12T13:24:25;39.10;41.30
7360;DHT22;3720;48.274;7.796;2023-09-12T13:26:57;39.20;39.50
7360;DHT22;3720;48.274;7.796;2023-09-12T13:29:30;39.30;39.00
7360;DHT22;3720;48.274;7.796;2023-09-12T13:32:02;38.90;38.60
7360;DHT22;3720;48.274;7.796;2023-09-12T13:34:34;38.60;39.40
7360;DHT22;3720;48.274;7.796;2023-09-12T13:37:06;38.40;39.70
7360;DHT22;3720;48.274;7.796;2023-09-12T13:39:38;38.30;42.60
7360;DHT22;3720;48.274;7.796;2023-09-12T13:42:09;38.50;41.70
7360;DHT22;3720;48.274;7.796;2023-09-12T13:44:42;38.50;41.10
7360;DHT22;3720;48.274;7.796;2023-09-12T13:47:14;38.70;41.30
7360;DHT22;3720;48.274;7.796;2023-09-12T13:49:51;38.90;42.40
7360;DHT22;3720;48.274;7.796;2023-09-12T13:52:26;39.00;40.10
7360;DHT22;3720;48.274;7.796;2023-09-12T13:54:58;39.00;41.40
7360;DHT22;3720;48.274;7.796;2023-09-12T13:57:33;39.00;42.00
7360;DHT22;3720;48.274;7.796;2023-09-12T14:00:08;38.80;38.40
7360;DHT22;3720;48.274;7.796;2023-09-12T14:02:40;38.50;39.30
7360;DHT22;3720;48.274;7.796;2023-09-12T14:05:12;38.40;40.00
7360;DHT22;3720;48.274;7.796;2023-09-12T14:07:44;38.50;41.20
7360;DHT22;3720;48.274;7.796;2023-09-12T14:10:16;38.70;41.90
7360;DHT22;3720;48.274;7.796;2023-09-12T14:12:47;38.90;41.60
7360;DHT22;3720;48.274;7.796;2023-09-12T14:15:21;38.70;31.10
7360;DHT22;3720;48.274;7.796;2023-09-12T14:17:53;38.20;33.20
7360;DHT22;3720;48.274;7.796;2023-09-12T14:20:24;37.90;31.70
7360;DHT22;3720;48.274;7.796;2023-09-12T14:22:57;37.80;30.10
7360;DHT22;3720;48.274;7.796;2023-09-12T14:25:29;37.60;29.30
7360;DHT22;3720;48.274;7.796;2023-09-12T14:28:01;37.70;30.50
7360;DHT22;3720;48.274;7.796;2023-09-12T14:30:36;37.80;30.80
7360;DHT22;3720;48.274;7.796;2023-09-12T14:33:08;37.80;29.50
7360;DHT22;3720;48.274;7.796;2023-09-12T14:35:40;37.80;30.00
7360;DHT22;3720;48.274;7.796;2023-09-12T14:38:12;37.90;31.40
7360;DHT22;3720;48.274;7.796;2023-09-12T14:40:44;37.90;32.40
7360;DHT22;3720;48.274;7.796;2023-09-12T14:43:16;38.10;31.70
7360;DHT22;3720;48.274;7.796;2023-09-12T14:45:49;38.10;31.80
7360;DHT22;3720;48.274;7.796;2023-09-12T14:48:21;37.90;31.10
7360;DHT22;3720;48.274;7.796;2023-09-12T14:50:53;37.50;31.00
7360;DHT22;3720;48.274;7.796;2023-09-12T14:53:25;37.50;31.90
7360;DHT22;3720;48.274;7.796;2023-09-12T14:55:57;37.20;32.80
7360;DHT22;3720;48.274;7.796;2023-09-12T14:58:29;37.20;32.20
7360;DHT22;3720;48.274;7.796;2023-09-12T15:01:03;37.00;33.40
7360;DHT22;3720;48.274;7.796;2023-09-12T15:03:35;37.00;32.30
7360;DHT22;3720;48.274;7.796;2023-09-12T15:06:08;37.00;31.20
7360;DHT22;3720;48.274;7.796;2023-09-12T15:08:40;36.90;29.60
7360;DHT22;3720;48.274;7.796;2023-09-12T15:11:11;37.00;29.60
7360;DHT22;3720;48.274;7.796;2023-09-12T15:13:43;37.00;30.20
7360;DHT22;3720;48.274;7.796;2023-09-12T15:16:18;36.80;29.90
7360;DHT22;3720;48.274;7.796;2023-09-12T15:18:50;36.70;29.20
7360;DHT22;3720;48.274;7.796;2023-09-12T15:21:22;36.60;30.00
7360;DHT22;3720;48.274;7.796;2023-09-12T15:23:54;36.60;30.00
7360;DHT22;3720;48.274;7.796;2023-09-12T15:26:26;36.50;30.10
7360;DHT22;3720;48.274;7.796;2023-09-12T15:28:57;36.60;30.00
7360;DHT22;3720;48.274;7.796;2023-09-12T15:31:33;36.40;29.30
7360;DHT22;3720;48.274;7.796;2023-09-12T15:34:04;36.30;29.80
7360;DHT22;3720;48.274;7.796;2023-09-12T15:36:41;36.30;29.60
7360;DHT22;3720;48.274;7.796;2023-09-12T15:39:13;36.30;30.70
7360;DHT22;3720;48.274;7.796;2023-09-12T15:41:45;36.40;31.20
7360;DHT22;3720;48.274;7.796;2023-09-12T15:44:17;36.20;30.90
7360;DHT22;3720;48.274;7.796;2023-09-12T15:46:50;35.90;31.80
7360;DHT22;3720;48.274;7.796;2023-09-12T15:49:24;35.80;31.90
7360;DHT22;3720;48.274;7.796;2023-09-12T15:51:56;35.60;33.50
7360;DHT22;3720;48.274;7.796;2023-09-12T15:54:28;35.50;34.20
7360;DHT22;3720;48.274;7.796;2023-09-12T15:57:00;35.20;34.10
7360;DHT22;3720;48.274;7.796;2023-09-12T15:59:33;34.80;35.50
7360;DHT22;3720;48.274;7.796;2023-09-12T16:02:06;34.40;36.10
7360;DHT22;3720;48.274;7.796;2023-09-12T16:04:38;34.10;36.90
7360;DHT22;3720;48.274;7.796;2023-09-12T16:07:10;34.10;38.00
7360;DHT22;3720;48.274;7.796;2023-09-12T16:09:41;34.20;37.70
7360;DHT22;3720;48.274;7.796;2023-09-12T16:12:13;34.30;37.40
7360;DHT22;3720;48.274;7.796;2023-09-12T16:14:45;34.30;37.90
7360;DHT22;3720;48.274;7.796;2023-09-12T16:17:18;34.20;38.40
7360;DHT22;3720;48.274;7.796;2023-09-12T16:19:51;34.10;38.10
7360;DHT22;3720;48.274;7.796;2023-09-12T16:22:23;34.00;38.70
7360;DHT22;3720;48.274;7.796;2023-09-12T16:24:55;33.80;39.20
7360;DHT22;3720;48.274;7.796;2023-09-12T16:27:27;33.60;39.80
7360;DHT22;3720;48.274;7.796;2023-09-12T16:29:58;33.40;40.20
7360;DHT22;3720;48.274;7.796;2023-09-12T16:32:32;33.20;40.80
7360;DHT22;3720;48.274;7.796;2023-09-12T16:35:04;33.10;41.80
7360;DHT22;3720;48.274;7.796;2023-09-12T16:37:36;32.80;41.20
7360;DHT22;3720;48.274;7.796;2023-09-12T16:40:08;32.70;40.20